sensor_id;sensor_type;location;lat;lon;timestamp;P1;durP1;ratioP1;P2;durP2;ratioP2
32613;SDS011;19031;51.400;6.770;2023-07-31T00:01:14;14.70;;;4.90;;
32613;SDS011;19031;51.400;6.770;2023-07-31T00:03:40;15.48;;;5.57;;
32613;SDS011;19031;51.400;6.770;2023-07-31T00:06:05;10.10;;;4.50;;
32613;SDS011;19031;51.400;6.770;2023-07-31T00:08:31;20.50;;;5.18;;
32613;SDS011;19031;51.400;6.770;2023-07-31T00:10:56;13.90;;;4.35;;
32613;SDS011;19031;51.400;6.770;2023-07-31T00:13:22;15.32;;;4.93;;
32613;SDS011;19031;51.400;6.770;2023-07-31T00:15:48;10.93;;;4.28;;
32613;SDS011;19031;51.400;6.770;2023-07-31T00:18:13;13.13;;;4.65;;
32613;SDS011;19031;51.400;6.770;2023-07-31T00:20:39;14.98;;;4.50;;
32613;SDS011;19031;51.400;6.770;2023-07-31T00:23:05;15.90;;;3.97;;
32613;SDS011;19031;51.400;6.770;2023-07-31T00:25:30;11.82;;;4.53;;
32613;SDS011;19031;51.400;6.770;2023-07-31T00:27:56;15.82;;;4.57;;
32613;SDS011;19031;51.400;6.770;2023-07-31T00:30:21;12.65;;;3.97;;
32613;SDS011;19031;51.400;6.770;2023-07-31T00:32:47;18.63;;;4.85;;
32613;SDS011;19031;51.400;6.770;2023-07-31T00:35:13;15.57;;;5.03;;
32613;SDS011;19031;51.400;6.770;2023-07-31T00:37:38;13.70;;;4.82;;
32613;SDS011;19031;51.400;6.770;2023-07-31T00:40:04;14.93;;;4.38;;
32613;SDS011;19031;51.400;6.770;2023-07-31T00:42:30;16.52;;;4.97;;
32613;SDS011;19031;51.400;6.770;2023-07-31T00:44:56;14.52;;;4.90;;
32613;SDS011;19031;51.400;6.770;2023-07-31T00:47:21;16.35;;;4.50;;
32613;SDS011;19031;51.400;6.770;2023-07-31T00:49:47;12.10;;;4.72;;
32613;SDS011;19031;51.400;6.770;2023-07-31T00:52:13;12.68;;;4.32;;
32613;SDS011;19031;51.400;6.770;2023-07-31T00:54:39;13.57;;;4.60;;
32613;SDS011;19031;51.400;6.770;2023-07-31T00:57:04;13.93;;;5.60;;
32613;SDS011;19031;51.400;6.770;2023-07-31T00:59:32;15.82;;;5.38;;
32613;SDS011;19031;51.400;6.770;2023-07-31T01:01:58;14.73;;;4.72;;
32613;SDS011;19031;51.400;6.770;2023-07-31T01:04:23;12.45;;;4.85;;
32613;SDS011;19031;51.400;6.770;2023-07-31T01:07:05;18.98;;;6.18;;
32613;SDS011;19031;51.400;6.770;2023-07-31T01:09:40;14.40;;;4.88;;
32613;SDS011;19031;51.400;6.770;2023-07-31T01:12:16;16.00;;;5.80;;
32613;SDS011;19031;51.400;6.770;2023-07-31T01:17:30;21.42;;;5.72;;
32613;SDS011;19031;51.400;6.770;2023-07-31T01:19:56;13.95;;;5.40;;
32613;SDS011;19031;51.400;6.770;2023-07-31T01:28:13;16.75;;;5.63;;
32613;SDS011;19031;51.400;6.770;2023-07-31T01:30:43;20.02;;;5.00;;
32613;SDS011;19031;51.400;6.770;2023-07-31T01:33:12;15.60;;;5.28;;
32613;SDS011;19031;51.400;6.770;2023-07-31T01:35:39;12.15;;;4.35;;
32613;SDS011;19031;51.400;6.770;2023-07-31T01:38:07;10.93;;;4.45;;
32613;SDS011;19031;51.400;6.770;2023-07-31T01:40:32;12.90;;;4.15;;
32613;SDS011;19031;51.400;6.770;2023-07-31T01:42:58;12.55;;;4.20;;
32613;SDS011;19031;51.400;6.770;2023-07-31T01:45:23;11.95;;;4.63;;
32613;SDS011;19031;51.400;6.770;2023-07-31T01:47:49;12.73;;;4.70;;
32613;SDS011;19031;51.400;6.770;2023-07-31T01:50:14;14.15;;;4.65;;
32613;SDS011;19031;51.400;6.770;2023-07-31T01:52:40;17.17;;;4.78;;
32613;SDS011;19031;51.400;6.770;2023-07-31T01:55:05;16.88;;;5.38;;
32613;SDS011;19031;51.400;6.770;2023-07-31T01:57:31;17.92;;;5.63;;
32613;SDS011;19031;51.400;6.770;2023-07-31T01:59:57;19.95;;;5.25;;
32613;SDS011;19031;51.400;6.770;2023-07-31T02:02:22;16.55;;;5.15;;
32613;SDS011;19031;51.400;6.770;2023-07-31T02:04:48;13.85;;;5.85;;
32613;SDS011;19031;51.400;6.770;2023-07-31T02:07:13;24.35;;;8.00;;
32613;SDS011;19031;51.400;6.770;2023-07-31T02:09:39;16.25;;;6.95;;
32613;SDS011;19031;51.400;6.770;2023-07-31T02:12:08;17.77;;;5.38;;
32613;SDS011;19031;51.400;6.770;2023-07-31T02:14:34;14.88;;;5.78;;
32613;SDS011;19031;51.400;6.770;2023-07-31T02:16:59;10.02;;;4.13;;
32613;SDS011;19031;51.400;6.770;2023-07-31T02:19:25;16.45;;;4.40;;
32613;SDS011;19031;51.400;6.770;2023-07-31T02:21:51;16.10;;;4.65;;
32613;SDS011;19031;51.400;6.770;2023-07-31T02:24:16;11.77;;;4.78;;
32613;SDS011;19031;51.400;6.770;2023-07-31T02:26:42;15.00;;;4.55;;
32613;SDS011;19031;51.400;6.770;2023-07-31T02:29:08;13.15;;;3.70;;
32613;SDS011;19031;51.400;6.770;2023-07-31T02:31:33;14.15;;;5.25;;
32613;SDS011;19031;51.400;6.770;2023-07-31T02:33:59;18.15;;;4.78;;
32613;SDS011;19031;51.400;6.770;2023-07-31T02:36:25;20.08;;;4.82;;
32613;SDS011;19031;51.400;6.770;2023-07-31T02:38:50;21.67;;;5.57;;
32613;SDS011;19031;51.400;6.770;2023-07-31T02:41:16;16.35;;;4.97;;
32613;SDS011;19031;51.400;6.770;2023-07-31T02:43:41;17.67;;;4.63;;
32613;SDS011;19031;51.400;6.770;2023-07-31T02:46:07;15.82;;;4.63;;
32613;SDS011;19031;51.400;6.770;2023-07-31T02:48:33;14.93;;;4.75;;
32613;SDS011;19031;51.400;6.770;2023-07-31T02:50:58;12.55;;;4.35;;
32613;SDS011;19031;51.400;6.770;2023-07-31T02:53:24;17.25;;;6.00;;
32613;SDS011;19031;51.400;6.770;2023-07-31T02:55:49;14.18;;;4.53;;
32613;SDS011;19031;51.400;6.770;2023-07-31T02:58:15;18.00;;;5.97;;
32613;SDS011;19031;51.400;6.770;2023-07-31T03:00:44;13.95;;;4.80;;
32613;SDS011;19031;51.400;6.770;2023-07-31T03:03:10;19.38;;;6.72;;
32613;SDS011;19031;51.400;6.770;2023-07-31T03:05:35;20.90;;;5.63;;
32613;SDS011;19031;51.400;6.770;2023-07-31T03:08:01;16.50;;;5.68;;
32613;SDS011;19031;51.400;6.770;2023-07-31T03:10:27;17.42;;;6.32;;
32613;SDS011;19031;51.400;6.770;2023-07-31T03:12:52;15.50;;;5.25;;
32613;SDS011;19031;51.400;6.770;2023-07-31T03:15:18;15.95;;;5.78;;
32613;SDS011;19031;51.400;6.770;2023-07-31T03:17:43;17.48;;;5.45;;
32613;SDS011;19031;51.400;6.770;2023-07-31T03:20:09;19.60;;;5.93;;
32613;SDS011;19031;51.400;6.770;2023-07-31T03:22:35;15.27;;;6.68;;
32613;SDS011;19031;51.400;6.770;2023-07-31T03:25:01;16.20;;;6.15;;
32613;SDS011;19031;51.400;6.770;2023-07-31T03:27:27;16.50;;;5.68;;
32613;SDS011;19031;51.400;6.770;2023-07-31T03:29:53;21.42;;;6.88;;
32613;SDS011;19031;51.400;6.770;2023-07-31T03:32:19;24.08;;;5.72;;
32613;SDS011;19031;51.400;6.770;2023-07-31T03:34:44;17.42;;;6.10;;
32613;SDS011;19031;51.400;6.770;2023-07-31T03:37:10;17.90;;;5.78;;
32613;SDS011;19031;51.400;6.770;2023-07-31T03:39:35;18.17;;;6.03;;
32613;SDS011;19031;51.400;6.770;2023-07-31T03:42:01;15.38;;;4.35;;
32613;SDS011;19031;51.400;6.770;2023-07-31T03:44:27;14.05;;;4.75;;
32613;SDS011;19031;51.400;6.770;2023-07-31T03:46:52;11.00;;;4.22;;
32613;SDS011;19031;51.400;6.770;2023-07-31T03:49:18;13.73;;;5.15;;
32613;SDS011;19031;51.400;6.770;2023-07-31T03:51:44;18.52;;;5.28;;
32613;SDS011;19031;51.400;6.770;2023-07-31T03:54:09;17.17;;;5.30;;
32613;SDS011;19031;51.400;6.770;2023-07-31T03:56:35;15.02;;;5.63;;
32613;SDS011;19031;51.400;6.770;2023-07-31T03:59:01;18.38;;;6.15;;
32613;SDS011;19031;51.400;6.770;2023-07-31T04:01:26;19.52;;;6.22;;
32613;SDS011;19031;51.400;6.770;2023-07-31T04:03:52;19.35;;;5.60;;
32613;SDS011;19031;51.400;6.770;2023-07-31T04:06:17;14.15;;;4.93;;
32613;SDS011;19031;51.400;6.770;2023-07-31T04:08:43;13.43;;;5.13;;
32613;SDS011;19031;51.400;6.770;2023-07-31T04:11:10;13.07;;;5.05;;
32613;SDS011;19031;51.400;6.770;2023-07-31T04:13:36;14.57;;;5.15;;
32613;SDS011;19031;51.400;6.770;2023-07-31T04:16:02;15.88;;;5.05;;
32613;SDS011;19031;51.400;6.770;2023-07-31T04:18:28;18.60;;;5.53;;
32613;SDS011;19031;51.400;6.770;2023-07-31T04:20:55;16.38;;;5.00;;
32613;SDS011;19031;51.400;6.770;2023-07-31T04:23:23;17.77;;;5.53;;
32613;SDS011;19031;51.400;6.770;2023-07-31T04:25:49;16.45;;;4.82;;
32613;SDS011;19031;51.400;6.770;2023-07-31T04:28:14;14.93;;;4.57;;
32613;SDS011;19031;51.400;6.770;2023-07-31T04:30:40;11.88;;;4.70;;
32613;SDS011;19031;51.400;6.770;2023-07-31T04:33:05;11.20;;;4.25;;
32613;SDS011;19031;51.400;6.770;2023-07-31T04:35:31;10.75;;;4.07;;
32613;SDS011;19031;51.400;6.770;2023-07-31T04:37:57;11.13;;;4.20;;
32613;SDS011;19031;51.400;6.770;2023-07-31T04:40:22;10.73;;;4.28;;
32613;SDS011;19031;51.400;6.770;2023-07-31T04:42:48;9.32;;;3.40;;
32613;SDS011;19031;51.400;6.770;2023-07-31T04:45:13;13.05;;;4.15;;
32613;SDS011;19031;51.400;6.770;2023-07-31T04:47:39;8.23;;;3.75;;
32613;SDS011;19031;51.400;6.770;2023-07-31T04:50:05;14.80;;;4.22;;
32613;SDS011;19031;51.400;6.770;2023-07-31T04:52:31;14.80;;;4.18;;
32613;SDS011;19031;51.400;6.770;2023-07-31T04:54:56;12.70;;;4.60;;
32613;SDS011;19031;51.400;6.770;2023-07-31T04:57:22;15.93;;;3.70;;
32613;SDS011;19031;51.400;6.770;2023-07-31T04:59:47;14.02;;;4.50;;
32613;SDS011;19031;51.400;6.770;2023-07-31T05:02:13;13.32;;;4.15;;
32613;SDS011;19031;51.400;6.770;2023-07-31T05:04:39;12.90;;;3.60;;
32613;SDS011;19031;51.400;6.770;2023-07-31T05:07:04;11.75;;;4.20;;
32613;SDS011;19031;51.400;6.770;2023-07-31T05:09:30;10.43;;;4.05;;
32613;SDS011;19031;51.400;6.770;2023-07-31T05:11:55;8.60;;;3.97;;
32613;SDS011;19031;51.400;6.770;2023-07-31T05:14:21;10.15;;;3.65;;
32613;SDS011;19031;51.400;6.770;2023-07-31T05:16:47;9.15;;;4.13;;
32613;SDS011;19031;51.400;6.770;2023-07-31T05:19:12;9.93;;;4.15;;
32613;SDS011;19031;51.400;6.770;2023-07-31T05:21:38;11.00;;;3.60;;
32613;SDS011;19031;51.400;6.770;2023-07-31T05:24:04;10.73;;;4.07;;
32613;SDS011;19031;51.400;6.770;2023-07-31T05:26:29;10.13;;;3.45;;
32613;SDS011;19031;51.400;6.770;2023-07-31T05:28:55;11.60;;;4.25;;
32613;SDS011;19031;51.400;6.770;2023-07-31T05:31:21;10.57;;;3.67;;
32613;SDS011;19031;51.400;6.770;2023-07-31T05:33:47;11.98;;;4.25;;
32613;SDS011;19031;51.400;6.770;2023-07-31T05:36:15;13.30;;;3.72;;
32613;SDS011;19031;51.400;6.770;2023-07-31T05:38:41;12.32;;;4.97;;
32613;SDS011;19031;51.400;6.770;2023-07-31T05:41:09;10.50;;;4.53;;
32613;SDS011;19031;51.400;6.770;2023-07-31T05:43:34;11.30;;;4.22;;
32613;SDS011;19031;51.400;6.770;2023-07-31T05:46:00;10.98;;;4.03;;
32613;SDS011;19031;51.400;6.770;2023-07-31T05:48:26;13.50;;;4.18;;
32613;SDS011;19031;51.400;6.770;2023-07-31T05:50:52;11.88;;;4.35;;
32613;SDS011;19031;51.400;6.770;2023-07-31T05:53:17;9.23;;;4.28;;
32613;SDS011;19031;51.400;6.770;2023-07-31T05:55:43;9.63;;;3.72;;
32613;SDS011;19031;51.400;6.770;2023-07-31T05:58:08;11.75;;;4.47;;
32613;SDS011;19031;51.400;6.770;2023-07-31T06:00:34;12.50;;;4.65;;
32613;SDS011;19031;51.400;6.770;2023-07-31T06:02:59;9.90;;;4.25;;
32613;SDS011;19031;51.400;6.770;2023-07-31T06:05:25;11.88;;;4.25;;
32613;SDS011;19031;51.400;6.770;2023-07-31T06:07:53;12.13;;;4.50;;
32613;SDS011;19031;51.400;6.770;2023-07-31T06:10:18;11.93;;;4.25;;
32613;SDS011;19031;51.400;6.770;2023-07-31T06:12:44;12.32;;;4.05;;
32613;SDS011;19031;51.400;6.770;2023-07-31T06:15:09;6.13;;;3.60;;
32613;SDS011;19031;51.400;6.770;2023-07-31T06:17:36;5.10;;;3.53;;
32613;SDS011;19031;51.400;6.770;2023-07-31T06:20:01;12.60;;;4.90;;
32613;SDS011;19031;51.400;6.770;2023-07-31T06:22:30;11.63;;;4.38;;
32613;SDS011;19031;51.400;6.770;2023-07-31T06:24:55;10.18;;;4.47;;
32613;SDS011;19031;51.400;6.770;2023-07-31T06:27:21;10.93;;;4.10;;
32613;SDS011;19031;51.400;6.770;2023-07-31T06:29:46;7.57;;;3.97;;
32613;SDS011;19031;51.400;6.770;2023-07-31T06:32:12;5.22;;;3.72;;
32613;SDS011;19031;51.400;6.770;2023-07-31T06:34:38;9.50;;;4.28;;
32613;SDS011;19031;51.400;6.770;2023-07-31T06:37:04;12.57;;;4.65;;
32613;SDS011;19031;51.400;6.770;2023-07-31T06:39:30;6.40;;;3.85;;
32613;SDS011;19031;51.400;6.770;2023-07-31T06:41:56;9.68;;;4.20;;
32613;SDS011;19031;51.400;6.770;2023-07-31T06:44:21;8.98;;;4.15;;
32613;SDS011;19031;51.400;6.770;2023-07-31T06:46:47;10.57;;;4.20;;
32613;SDS011;19031;51.400;6.770;2023-07-31T06:49:12;10.43;;;4.10;;
32613;SDS011;19031;51.400;6.770;2023-07-31T06:51:40;8.98;;;4.40;;
32613;SDS011;19031;51.400;6.770;2023-07-31T06:54:06;13.57;;;4.60;;
32613;SDS011;19031;51.400;6.770;2023-07-31T06:56:32;10.10;;;4.10;;
32613;SDS011;19031;51.400;6.770;2023-07-31T06:58:58;7.97;;;4.18;;
32613;SDS011;19031;51.400;6.770;2023-07-31T07:01:23;10.48;;;4.10;;
32613;SDS011;19031;51.400;6.770;2023-07-31T07:03:49;10.35;;;4.00;;
32613;SDS011;19031;51.400;6.770;2023-07-31T07:06:16;9.50;;;4.50;;
32613;SDS011;19031;51.400;6.770;2023-07-31T07:08:44;9.48;;;4.32;;
32613;SDS011;19031;51.400;6.770;2023-07-31T07:11:10;7.45;;;3.70;;
32613;SDS011;19031;51.400;6.770;2023-07-31T07:13:36;6.25;;;3.80;;
32613;SDS011;19031;51.400;6.770;2023-07-31T07:16:01;7.45;;;3.80;;
32613;SDS011;19031;51.400;6.770;2023-07-31T07:18:27;9.90;;;4.13;;
32613;SDS011;19031;51.400;6.770;2023-07-31T07:20:53;11.15;;;3.92;;
32613;SDS011;19031;51.400;6.770;2023-07-31T07:23:19;10.68;;;4.50;;
32613;SDS011;19031;51.400;6.770;2023-07-31T07:25:46;9.93;;;4.63;;
32613;SDS011;19031;51.400;6.770;2023-07-31T07:28:12;9.55;;;4.00;;
32613;SDS011;19031;51.400;6.770;2023-07-31T07:30:38;10.93;;;4.45;;
32613;SDS011;19031;51.400;6.770;2023-07-31T07:33:04;8.27;;;3.97;;
32613;SDS011;19031;51.400;6.770;2023-07-31T07:35:30;11.15;;;5.10;;
32613;SDS011;19031;51.400;6.770;2023-07-31T07:37:58;9.48;;;4.00;;
32613;SDS011;19031;51.400;6.770;2023-07-31T07:40:23;8.85;;;4.55;;
32613;SDS011;19031;51.400;6.770;2023-07-31T07:42:49;9.18;;;4.45;;
32613;SDS011;19031;51.400;6.770;2023-07-31T07:45:15;11.25;;;3.78;;
32613;SDS011;19031;51.400;6.770;2023-07-31T07:47:41;10.85;;;4.05;;
32613;SDS011;19031;51.400;6.770;2023-07-31T07:50:07;9.27;;;3.95;;
32613;SDS011;19031;51.400;6.770;2023-07-31T07:52:33;8.43;;;3.80;;
32613;SDS011;19031;51.400;6.770;2023-07-31T07:54:59;6.25;;;3.58;;
32613;SDS011;19031;51.400;6.770;2023-07-31T07:57:25;8.52;;;3.58;;
32613;SDS011;19031;51.400;6.770;2023-07-31T07:59:51;8.68;;;3.35;;
32613;SDS011;19031;51.400;6.770;2023-07-31T08:02:16;9.13;;;3.55;;
32613;SDS011;19031;51.400;6.770;2023-07-31T08:04:42;8.45;;;3.67;;
32613;SDS011;19031;51.400;6.770;2023-07-31T08:07:07;6.13;;;3.30;;
32613;SDS011;19031;51.400;6.770;2023-07-31T08:09:35;9.32;;;3.92;;
32613;SDS011;19031;51.400;6.770;2023-07-31T08:12:01;7.60;;;3.05;;
32613;SDS011;19031;51.400;6.770;2023-07-31T08:14:28;6.38;;;3.13;;
32613;SDS011;19031;51.400;6.770;2023-07-31T08:16:54;6.97;;;2.92;;
32613;SDS011;19031;51.400;6.770;2023-07-31T08:19:20;10.05;;;3.08;;
32613;SDS011;19031;51.400;6.770;2023-07-31T08:21:46;5.93;;;2.75;;
32613;SDS011;19031;51.400;6.770;2023-07-31T08:24:11;5.38;;;2.80;;
32613;SDS011;19031;51.400;6.770;2023-07-31T08:26:37;7.38;;;2.53;;
32613;SDS011;19031;51.400;6.770;2023-07-31T08:29:02;7.95;;;2.97;;
32613;SDS011;19031;51.400;6.770;2023-07-31T08:31:28;4.93;;;2.80;;
32613;SDS011;19031;51.400;6.770;2023-07-31T08:33:54;4.35;;;2.70;;
32613;SDS011;19031;51.400;6.770;2023-07-31T08:36:20;4.35;;;2.10;;
32613;SDS011;19031;51.400;6.770;2023-07-31T08:38:46;5.88;;;2.67;;
32613;SDS011;19031;51.400;6.770;2023-07-31T08:41:12;5.78;;;2.60;;
32613;SDS011;19031;51.400;6.770;2023-07-31T08:43:38;7.97;;;2.42;;
32613;SDS011;19031;51.400;6.770;2023-07-31T08:46:04;4.93;;;2.65;;
32613;SDS011;19031;51.400;6.770;2023-07-31T08:48:30;6.80;;;2.88;;
32613;SDS011;19031;51.400;6.770;2023-07-31T08:50:57;5.40;;;2.78;;
32613;SDS011;19031;51.400;6.770;2023-07-31T08:53:22;5.22;;;2.40;;
32613;SDS011;19031;51.400;6.770;2023-07-31T08:55:48;7.88;;;2.70;;
32613;SDS011;19031;51.400;6.770;2023-07-31T08:58:14;8.50;;;2.88;;
32613;SDS011;19031;51.400;6.770;2023-07-31T09:00:40;6.13;;;2.67;;
32613;SDS011;19031;51.400;6.770;2023-07-31T09:03:09;6.03;;;2.67;;
32613;SDS011;19031;51.400;6.770;2023-07-31T09:05:40;4.95;;;2.38;;
32613;SDS011;19031;51.400;6.770;2023-07-31T09:08:08;5.22;;;2.47;;
32613;SDS011;19031;51.400;6.770;2023-07-31T09:10:37;8.10;;;2.47;;
32613;SDS011;19031;51.400;6.770;2023-07-31T09:13:09;8.02;;;2.40;;
32613;SDS011;19031;51.400;6.770;2023-07-31T09:15:35;5.68;;;2.70;;
32613;SDS011;19031;51.400;6.770;2023-07-31T09:18:02;7.45;;;2.92;;
32613;SDS011;19031;51.400;6.770;2023-07-31T09:20:28;6.47;;;3.05;;
32613;SDS011;19031;51.400;6.770;2023-07-31T09:22:54;7.75;;;3.22;;
32613;SDS011;19031;51.400;6.770;2023-07-31T09:25:21;6.93;;;2.97;;
32613;SDS011;19031;51.400;6.770;2023-07-31T09:27:49;6.05;;;2.67;;
32613;SDS011;19031;51.400;6.770;2023-07-31T09:30:19;5.03;;;2.90;;
32613;SDS011;19031;51.400;6.770;2023-07-31T09:32:46;7.65;;;2.58;;
32613;SDS011;19031;51.400;6.770;2023-07-31T09:35:19;3.55;;;2.30;;
32613;SDS011;19031;51.400;6.770;2023-07-31T09:37:53;6.00;;;2.90;;
32613;SDS011;19031;51.400;6.770;2023-07-31T09:40:34;5.82;;;2.35;;
32613;SDS011;19031;51.400;6.770;2023-07-31T09:45:54;4.53;;;2.38;;
32613;SDS011;19031;51.400;6.770;2023-07-31T09:48:32;4.80;;;2.42;;
32613;SDS011;19031;51.400;6.770;2023-07-31T09:51:09;5.23;;;2.13;;
32613;SDS011;19031;51.400;6.770;2023-07-31T09:53:35;6.70;;;2.25;;
32613;SDS011;19031;51.400;6.770;2023-07-31T09:56:17;3.45;;;2.13;;
32613;SDS011;19031;51.400;6.770;2023-07-31T09:58:46;3.92;;;1.92;;
32613;SDS011;19031;51.400;6.770;2023-07-31T10:01:12;5.50;;;2.22;;
32613;SDS011;19031;51.400;6.770;2023-07-31T10:03:39;5.65;;;2.45;;
32613;SDS011;19031;51.400;6.770;2023-07-31T10:06:05;4.07;;;2.25;;
32613;SDS011;19031;51.400;6.770;2023-07-31T10:08:34;5.25;;;2.30;;
32613;SDS011;19031;51.400;6.770;2023-07-31T10:11:01;5.07;;;2.22;;
32613;SDS011;19031;51.400;6.770;2023-07-31T10:13:28;12.25;;;3.00;;
32613;SDS011;19031;51.400;6.770;2023-07-31T10:15:59;4.75;;;2.58;;
32613;SDS011;19031;51.400;6.770;2023-07-31T10:18:26;3.92;;;2.10;;
32613;SDS011;19031;51.400;6.770;2023-07-31T10:21:07;7.28;;;3.15;;
32613;SDS011;19031;51.400;6.770;2023-07-31T10:23:33;5.32;;;2.45;;
32613;SDS011;19031;51.400;6.770;2023-07-31T10:25:59;5.93;;;2.95;;
32613;SDS011;19031;51.400;6.770;2023-07-31T10:28:30;5.25;;;2.97;;
32613;SDS011;19031;51.400;6.770;2023-07-31T10:30:58;4.63;;;2.63;;
32613;SDS011;19031;51.400;6.770;2023-07-31T10:33:24;4.95;;;2.67;;
32613;SDS011;19031;51.400;6.770;2023-07-31T10:36:11;5.97;;;3.03;;
32613;SDS011;19031;51.400;6.770;2023-07-31T10:42:00;8.65;;;3.30;;
32613;SDS011;19031;51.400;6.770;2023-07-31T10:44:35;5.78;;;2.90;;
32613;SDS011;19031;51.400;6.770;2023-07-31T10:47:00;6.20;;;2.97;;
32613;SDS011;19031;51.400;6.770;2023-07-31T10:49:29;7.13;;;2.75;;
32613;SDS011;19031;51.400;6.770;2023-07-31T10:52:19;7.53;;;3.40;;
32613;SDS011;19031;51.400;6.770;2023-07-31T10:57:55;5.85;;;3.25;;
32613;SDS011;19031;51.400;6.770;2023-07-31T11:05:41;6.60;;;2.90;;
32613;SDS011;19031;51.400;6.770;2023-07-31T11:11:12;7.53;;;3.20;;
32613;SDS011;19031;51.400;6.770;2023-07-31T11:13:50;9.90;;;2.75;;
32613;SDS011;19031;51.400;6.770;2023-07-31T11:16:21;8.95;;;2.80;;
32613;SDS011;19031;51.400;6.770;2023-07-31T11:18:48;8.07;;;3.13;;
32613;SDS011;19031;51.400;6.770;2023-07-31T11:24:07;5.18;;;3.03;;
32613;SDS011;19031;51.400;6.770;2023-07-31T11:26:33;6.53;;;2.63;;
32613;SDS011;19031;51.400;6.770;2023-07-31T11:28:58;7.10;;;2.80;;
32613;SDS011;19031;51.400;6.770;2023-07-31T11:31:27;10.18;;;3.20;;
32613;SDS011;19031;51.400;6.770;2023-07-31T11:34:03;5.68;;;2.80;;
32613;SDS011;19031;51.400;6.770;2023-07-31T11:36:30;5.35;;;2.72;;
32613;SDS011;19031;51.400;6.770;2023-07-31T11:39:03;6.95;;;2.72;;
32613;SDS011;19031;51.400;6.770;2023-07-31T11:41:36;3.90;;;2.10;;
32613;SDS011;19031;51.400;6.770;2023-07-31T11:44:11;7.47;;;2.40;;
32613;SDS011;19031;51.400;6.770;2023-07-31T11:47:05;8.80;;;2.78;;
32613;SDS011;19031;51.400;6.770;2023-07-31T11:49:32;6.22;;;2.30;;
32613;SDS011;19031;51.400;6.770;2023-07-31T11:52:07;4.15;;;2.70;;
32613;SDS011;19031;51.400;6.770;2023-07-31T11:54:33;8.38;;;3.22;;
32613;SDS011;19031;51.400;6.770;2023-07-31T11:56:59;5.68;;;2.63;;
32613;SDS011;19031;51.400;6.770;2023-07-31T11:59:26;5.70;;;2.95;;
32613;SDS011;19031;51.400;6.770;2023-07-31T12:01:52;5.20;;;3.55;;
32613;SDS011;19031;51.400;6.770;2023-07-31T12:04:24;7.68;;;2.80;;
32613;SDS011;19031;51.400;6.770;2023-07-31T12:07:16;8.35;;;3.38;;
32613;SDS011;19031;51.400;6.770;2023-07-31T12:09:51;4.13;;;2.50;;
32613;SDS011;19031;51.400;6.770;2023-07-31T12:12:21;5.97;;;2.83;;
32613;SDS011;19031;51.400;6.770;2023-07-31T12:14:48;6.60;;;3.03;;
32613;SDS011;19031;51.400;6.770;2023-07-31T12:17:15;11.93;;;3.78;;
32613;SDS011;19031;51.400;6.770;2023-07-31T12:19:42;11.52;;;3.72;;
32613;SDS011;19031;51.400;6.770;2023-07-31T12:22:13;4.75;;;2.38;;
32613;SDS011;19031;51.400;6.770;2023-07-31T12:24:41;8.38;;;2.80;;
32613;SDS011;19031;51.400;6.770;2023-07-31T12:27:12;3.70;;;2.38;;
32613;SDS011;19031;51.400;6.770;2023-07-31T12:29:39;4.93;;;2.38;;
32613;SDS011;19031;51.400;6.770;2023-07-31T12:32:24;6.75;;;2.70;;
32613;SDS011;19031;51.400;6.770;2023-07-31T12:34:53;6.90;;;2.90;;
32613;SDS011;19031;51.400;6.770;2023-07-31T12:40:38;9.55;;;2.10;;
32613;SDS011;19031;51.400;6.770;2023-07-31T12:43:05;3.33;;;1.75;;
32613;SDS011;19031;51.400;6.770;2023-07-31T12:45:31;4.72;;;2.03;;
32613;SDS011;19031;51.400;6.770;2023-07-31T12:47:58;6.03;;;2.20;;
32613;SDS011;19031;51.400;6.770;2023-07-31T12:50:26;7.18;;;2.30;;
32613;SDS011;19031;51.400;6.770;2023-07-31T12:55:43;4.93;;;1.83;;
32613;SDS011;19031;51.400;6.770;2023-07-31T12:58:12;3.78;;;1.77;;
32613;SDS011;19031;51.400;6.770;2023-07-31T13:00:37;5.65;;;1.90;;
32613;SDS011;19031;51.400;6.770;2023-07-31T13:03:06;4.95;;;2.03;;
32613;SDS011;19031;51.400;6.770;2023-07-31T13:05:33;4.68;;;2.40;;
32613;SDS011;19031;51.400;6.770;2023-07-31T13:08:02;4.70;;;1.80;;
32613;SDS011;19031;51.400;6.770;2023-07-31T13:10:28;5.82;;;2.10;;
32613;SDS011;19031;51.400;6.770;2023-07-31T13:12:54;5.38;;;2.17;;
32613;SDS011;19031;51.400;6.770;2023-07-31T13:15:20;2.70;;;1.60;;
32613;SDS011;19031;51.400;6.770;2023-07-31T13:17:46;4.85;;;2.33;;
32613;SDS011;19031;51.400;6.770;2023-07-31T13:20:17;2.60;;;1.58;;
32613;SDS011;19031;51.400;6.770;2023-07-31T13:22:43;7.30;;;2.47;;
32613;SDS011;19031;51.400;6.770;2023-07-31T13:25:08;4.15;;;2.13;;
32613;SDS011;19031;51.400;6.770;2023-07-31T13:27:46;3.58;;;2.13;;
32613;SDS011;19031;51.400;6.770;2023-07-31T13:30:14;4.32;;;2.28;;
32613;SDS011;19031;51.400;6.770;2023-07-31T13:32:40;6.18;;;2.30;;
32613;SDS011;19031;51.400;6.770;2023-07-31T13:35:06;4.65;;;2.58;;
32613;SDS011;19031;51.400;6.770;2023-07-31T13:37:36;4.47;;;2.22;;
32613;SDS011;19031;51.400;6.770;2023-07-31T13:40:05;5.18;;;2.22;;
32613;SDS011;19031;51.400;6.770;2023-07-31T13:42:31;4.88;;;2.38;;
32613;SDS011;19031;51.400;6.770;2023-07-31T13:44:57;3.50;;;2.17;;
32613;SDS011;19031;51.400;6.770;2023-07-31T13:47:23;4.13;;;2.17;;
32613;SDS011;19031;51.400;6.770;2023-07-31T13:50:07;5.03;;;2.47;;
32613;SDS011;19031;51.400;6.770;2023-07-31T13:52:33;4.60;;;2.45;;
32613;SDS011;19031;51.400;6.770;2023-07-31T13:54:58;3.30;;;2.50;;
32613;SDS011;19031;51.400;6.770;2023-07-31T13:57:24;5.10;;;2.63;;
32613;SDS011;19031;51.400;6.770;2023-07-31T13:59:50;5.68;;;2.55;;
32613;SDS011;19031;51.400;6.770;2023-07-31T14:02:18;5.50;;;2.50;;
32613;SDS011;19031;51.400;6.770;2023-07-31T14:04:47;5.00;;;2.22;;
32613;SDS011;19031;51.400;6.770;2023-07-31T14:07:12;4.72;;;3.05;;
32613;SDS011;19031;51.400;6.770;2023-07-31T14:09:42;6.55;;;2.40;;
32613;SDS011;19031;51.400;6.770;2023-07-31T14:12:08;4.38;;;2.60;;
32613;SDS011;19031;51.400;6.770;2023-07-31T14:14:33;4.78;;;2.53;;
32613;SDS011;19031;51.400;6.770;2023-07-31T14:16:59;6.72;;;2.80;;
32613;SDS011;19031;51.400;6.770;2023-07-31T14:19:24;7.38;;;3.22;;
32613;SDS011;19031;51.400;6.770;2023-07-31T14:21:50;6.20;;;3.33;;
32613;SDS011;19031;51.400;6.770;2023-07-31T14:24:15;6.85;;;2.75;;
32613;SDS011;19031;51.400;6.770;2023-07-31T14:26:41;4.53;;;2.53;;
32613;SDS011;19031;51.400;6.770;2023-07-31T14:29:06;4.25;;;2.67;;
32613;SDS011;19031;51.400;6.770;2023-07-31T14:31:32;6.30;;;2.60;;
32613;SDS011;19031;51.400;6.770;2023-07-31T14:33:58;7.00;;;2.47;;
32613;SDS011;19031;51.400;6.770;2023-07-31T14:36:23;5.53;;;2.75;;
32613;SDS011;19031;51.400;6.770;2023-07-31T14:38:49;6.25;;;2.58;;
32613;SDS011;19031;51.400;6.770;2023-07-31T14:41:14;6.38;;;2.63;;
32613;SDS011;19031;51.400;6.770;2023-07-31T14:43:40;6.53;;;3.33;;
32613;SDS011;19031;51.400;6.770;2023-07-31T14:46:05;6.65;;;3.08;;
32613;SDS011;19031;51.400;6.770;2023-07-31T14:48:31;5.68;;;2.97;;
32613;SDS011;19031;51.400;6.770;2023-07-31T14:50:56;5.93;;;3.20;;
32613;SDS011;19031;51.400;6.770;2023-07-31T14:53:22;7.70;;;2.90;;
32613;SDS011;19031;51.400;6.770;2023-07-31T14:55:50;4.15;;;2.63;;
32613;SDS011;19031;51.400;6.770;2023-07-31T14:58:16;9.90;;;3.70;;
32613;SDS011;19031;51.400;6.770;2023-07-31T15:00:42;4.53;;;2.85;;
32613;SDS011;19031;51.400;6.770;2023-07-31T15:03:08;6.80;;;3.25;;
32613;SDS011;19031;51.400;6.770;2023-07-31T15:05:34;6.72;;;3.35;;
32613;SDS011;19031;51.400;6.770;2023-07-31T15:07:59;4.72;;;2.75;;
32613;SDS011;19031;51.400;6.770;2023-07-31T15:10:25;8.50;;;3.22;;
32613;SDS011;19031;51.400;6.770;2023-07-31T15:12:50;4.78;;;2.63;;
32613;SDS011;19031;51.400;6.770;2023-07-31T15:15:16;7.75;;;2.92;;